createdAt,value
2018-06-22T00:00:27.859Z,46.69
2018-06-22T00:01:27.894Z,46.79
2018-06-22T00:02:27.860Z,46.59
2018-06-22T00:03:27.862Z,46.41
2018-06-22T00:04:27.896Z,46.31
2018-06-22T00:05:27.851Z,46.21
2018-06-22T00:06:27.853Z,46.00
2018-06-22T00:07:27.844Z,46.48
2018-06-22T00:08:27.844Z,46.19
2018-06-22T00:09:27.830Z,46.19
2018-06-22T00:10:27.829Z,46.09
2018-06-22T00:11:27.863Z,46.19
2018-06-22T00:12:27.822Z,46.09
2018-06-22T00:13:27.826Z,45.90
2018-06-22T00:14:27.861Z,46.19
2018-06-22T00:15:27.819Z,46.19
2018-06-22T00:16:27.813Z,46.09
2018-06-22T00:17:27.807Z,46.09
2018-06-22T00:18:27.809Z,45.98
2018-06-22T00:19:27.799Z,46.45
2018-06-22T00:20:27.793Z,46.07
2018-06-22T00:21:27.840Z,45.78
2018-06-22T00:22:27.788Z,45.88
2018-06-22T00:23:27.790Z,45.59
2018-06-22T00:24:27.828Z,46.26
2018-06-22T00:25:27.775Z,46.65
2018-06-22T00:26:27.777Z,45.88
2018-06-22T00:27:27.771Z,45.67
2018-06-22T00:28:27.778Z,45.95
2018-06-22T00:29:27.762Z,45.95
2018-06-22T00:30:27.763Z,45.67
2018-06-22T00:31:27.800Z,45.67
2018-06-22T00:32:27.751Z,45.86
2018-06-22T00:33:27.758Z,46.05
2018-06-22T00:34:27.749Z,46.14
2018-06-22T00:35:27.737Z,46.14
2018-06-22T00:36:27.733Z,46.05
2018-06-22T00:37:27.735Z,46.24
2018-06-22T00:38:27.729Z,46.31
2018-06-22T00:39:27.732Z,46.41
2018-06-22T00:40:27.758Z,46.22
2018-06-22T00:41:27.744Z,46.62
2018-06-22T00:42:27.709Z,46.60
2018-06-22T00:43:27.716Z,46.70
2018-06-22T00:44:27.699Z,46.60
2018-06-22T00:45:27.698Z,46.70
2018-06-22T00:46:27.696Z,47.08
2018-06-22T00:47:27.694Z,47.56
2018-06-22T00:48:27.718Z,46.70
2018-06-22T00:49:27.690Z,46.22
2018-06-22T00:50:27.674Z,46.60
2018-06-22T00:51:27.677Z,46.70
2018-06-22T00:52:27.669Z,47.08
2018-06-22T00:53:27.662Z,46.98
2018-06-22T00:54:27.655Z,47.37
2018-06-22T00:55:27.652Z,47.46
2018-06-22T00:56:27.660Z,47.25
2018-06-22T00:57:27.643Z,47.27
2018-06-22T00:58:27.638Z,47.15
2018-06-22T00:59:27.634Z,47.06
2018-06-22T01:00:27.633Z,47.06
2018-06-22T01:01:27.628Z,47.06
2018-06-22T01:02:27.626Z,47.44
2018-06-22T01:03:27.613Z,47.25
2018-06-22T01:04:27.613Z,47.63
2018-06-22T01:05:27.605Z,47.53
2018-06-22T01:06:27.604Z,47.82
2018-06-22T01:07:27.597Z,47.44
2018-06-22T01:08:27.625Z,47.34
2018-06-22T01:09:27.601Z,47.82
2018-06-22T01:10:27.583Z,47.53
2018-06-22T01:11:27.576Z,47.63
2018-06-22T01:12:27.578Z,48.02
2018-06-22T01:13:27.569Z,48.11
2018-06-22T01:14:27.575Z,48.49
2018-06-22T01:15:27.562Z,47.82
2018-06-22T01:16:27.559Z,47.92
2018-06-22T01:17:27.552Z,47.92
2018-06-22T01:18:27.555Z,48.18
2018-06-22T01:19:27.539Z,48.66
2018-06-22T01:20:27.550Z,48.28
2018-06-22T01:21:27.529Z,49.24
2018-06-22T01:22:27.542Z,48.47
2018-06-22T01:23:27.519Z,48.57
2018-06-22T01:24:27.524Z,48.09
2018-06-22T01:25:27.541Z,48.66
2018-06-22T01:26:27.504Z,48.66
2018-06-22T01:27:27.506Z,48.28
2018-06-22T01:28:27.494Z,48.38
2018-06-22T01:29:27.490Z,48.57
2018-06-22T01:30:27.485Z,49.43
2018-06-22T01:31:27.481Z,49.33
2018-06-22T01:32:27.474Z,49.31
2018-06-22T01:33:27.482Z,49.62
2018-06-22T01:34:27.481Z,50.36
2018-06-22T01:35:27.459Z,49.91
2018-06-22T01:36:27.466Z,50.77
2018-06-22T01:37:27.464Z,50.00
2018-06-22T01:38:27.444Z,51.25
2018-06-22T01:39:27.449Z,49.52
2018-06-22T01:40:27.444Z,49.14
2018-06-22T01:41:27.444Z,49.62
2018-06-22T01:42:27.457Z,49.02
2018-06-22T01:43:27.416Z,49.21
2018-06-22T01:44:27.410Z,49.88
2018-06-22T01:45:27.418Z,49.50
2018-06-22T01:46:27.401Z,49.50
2018-06-22T01:47:27.397Z,49.79
2018-06-22T01:48:27.389Z,49.60
2018-06-22T01:49:27.403Z,49.79
2018-06-22T01:50:27.385Z,50.26
2018-06-22T01:51:27.379Z,50.65
2018-06-22T01:52:27.368Z,50.65
2018-06-22T01:53:27.365Z,50.74
2018-06-22T01:54:27.357Z,50.26
2018-06-22T01:55:27.352Z,50.46
2018-06-22T01:56:27.350Z,52.28
2018-06-22T01:57:27.353Z,50.46
2018-06-22T01:58:27.339Z,50.91
2018-06-22T01:59:27.330Z,50.84
2018-06-22T02:00:27.399Z,51.39
2018-06-22T02:01:27.333Z,50.84
2018-06-22T02:02:27.314Z,50.52
2018-06-22T02:03:27.315Z,50.91
2018-06-22T02:04:27.307Z,51.10
2018-06-22T02:05:27.297Z,51.20
2018-06-22T02:06:27.315Z,51.10
2018-06-22T02:07:27.313Z,50.91
2018-06-22T02:08:27.282Z,51.01
2018-06-22T02:09:27.279Z,50.34
2018-06-22T02:10:27.284Z,50.81
2018-06-22T02:11:27.264Z,50.84
2018-06-22T02:12:27.259Z,51.22
2018-06-22T02:13:27.262Z,51.01
2018-06-22T02:14:27.257Z,50.52
2018-06-22T02:15:27.242Z,50.72
2018-06-22T02:16:27.245Z,50.93
2018-06-22T02:17:27.229Z,51.22
2018-06-22T02:18:27.226Z,50.93
2018-06-22T02:19:27.224Z,51.10
2018-06-22T02:20:27.210Z,51.39
2018-06-22T02:21:27.207Z,51.39
2018-06-22T02:22:27.207Z,51.20
2018-06-22T02:23:27.232Z,51.20
2018-06-22T02:24:27.188Z,51.10
2018-06-22T02:25:27.183Z,51.29
2018-06-22T02:26:27.180Z,51.39
2018-06-22T02:27:27.172Z,51.58
2018-06-22T02:28:27.173Z,51.58
2018-06-22T02:29:27.159Z,51.77
2018-06-22T02:30:27.175Z,51.48
2018-06-22T02:31:27.153Z,52.15
2018-06-22T02:32:27.142Z,51.97
2018-06-22T02:33:27.141Z,52.06
2018-06-22T02:34:27.133Z,51.97
2018-06-22T02:35:27.126Z,51.97
2018-06-22T02:36:27.122Z,52.06
2018-06-22T02:37:27.114Z,52.06
2018-06-22T02:38:27.113Z,51.87
2018-06-22T02:39:27.114Z,51.77
2018-06-22T02:40:27.093Z,52.73
2018-06-22T02:41:27.090Z,52.83
2018-06-22T02:42:27.085Z,52.92
2018-06-22T02:43:27.090Z,53.94
2018-06-22T02:44:27.073Z,53.37
2018-06-22T02:45:27.080Z,52.92
2018-06-22T02:46:27.077Z,52.80
2018-06-22T02:47:27.056Z,52.70
2018-06-22T02:48:27.048Z,53.28
2018-06-22T02:49:27.041Z,52.70
2018-06-22T02:50:27.044Z,52.80
2018-06-22T02:51:27.041Z,52.42
2018-06-22T02:52:27.041Z,52.80
2018-06-22T02:53:27.024Z,52.89
2018-06-22T02:54:27.011Z,52.80
2018-06-22T02:55:27.019Z,53.47
2018-06-22T02:56:27.013Z,53.56
2018-06-22T02:57:26.995Z,53.66
2018-06-22T02:58:27.003Z,53.56
2018-06-22T02:59:27.001Z,53.37
2018-06-22T03:00:26.977Z,53.56
2018-06-22T03:01:26.983Z,53.66
2018-06-22T03:02:26.978Z,53.85
2018-06-22T03:03:26.968Z,53.85
2018-06-22T03:04:26.965Z,53.75
2018-06-22T03:05:26.948Z,54.14
2018-06-22T03:06:26.941Z,54.04
2018-06-22T03:07:26.933Z,53.75
2018-06-22T03:08:26.938Z,54.04
2018-06-22T03:09:26.925Z,54.04
2018-06-22T03:10:26.920Z,53.85
2018-06-22T03:11:26.920Z,54.43
2018-06-22T03:12:26.901Z,54.33
2018-06-22T03:13:26.904Z,53.94
2018-06-22T03:14:26.890Z,53.94
2018-06-22T03:15:26.922Z,53.94
2018-06-22T03:16:26.878Z,53.75
2018-06-22T03:17:26.873Z,53.92
2018-06-22T03:18:26.880Z,53.53
2018-06-22T03:19:26.865Z,53.94
2018-06-22T03:20:26.856Z,53.75
2018-06-22T03:21:26.857Z,53.73
2018-06-22T03:22:26.841Z,53.47
2018-06-22T03:23:26.848Z,53.82
2018-06-22T03:24:26.836Z,54.02
2018-06-22T03:25:26.819Z,53.92
2018-06-22T03:26:26.823Z,54.02
2018-06-22T03:27:26.812Z,54.39
2018-06-22T03:28:26.806Z,54.02
2018-06-22T03:29:26.794Z,54.21
2018-06-22T03:30:26.793Z,54.68
2018-06-22T03:31:26.798Z,54.02
2018-06-22T03:32:26.775Z,54.21
2018-06-22T03:33:26.794Z,54.78
2018-06-22T03:34:26.761Z,54.59
2018-06-22T03:35:26.755Z,54.30
2018-06-22T03:36:26.749Z,54.11
2018-06-22T03:37:26.740Z,54.30
2018-06-22T03:38:26.741Z,54.59
2018-06-22T03:39:26.799Z,54.30
2018-06-22T03:40:26.723Z,54.11
2018-06-22T03:41:26.723Z,54.78
2018-06-22T03:42:26.716Z,54.59
2018-06-22T03:43:26.701Z,54.59
2018-06-22T03:44:26.698Z,54.59
2018-06-22T03:45:26.692Z,54.02
2018-06-22T03:46:26.684Z,54.30
2018-06-22T03:47:26.674Z,54.39
2018-06-22T03:48:26.669Z,54.39
2018-06-22T03:49:26.674Z,54.59
2018-06-22T03:50:26.667Z,54.49
2018-06-22T03:51:26.649Z,54.68
2018-06-22T03:52:26.664Z,54.49
2018-06-22T03:53:26.643Z,55.35
2018-06-22T03:54:26.640Z,54.88
2018-06-22T03:55:26.624Z,55.26
2018-06-22T03:56:26.615Z,55.16
2018-06-22T03:57:26.607Z,55.16
2018-06-22T03:58:26.600Z,55.16
2018-06-22T03:59:26.592Z,55.35
2018-06-22T04:00:26.596Z,55.54
2018-06-22T04:01:26.583Z,55.16
2018-06-22T04:02:26.576Z,55.93
2018-06-22T04:03:26.568Z,55.80
2018-06-22T04:04:26.565Z,55.74
2018-06-22T04:05:26.558Z,55.54
2018-06-22T04:06:26.544Z,55.83
2018-06-22T04:07:26.536Z,55.83
2018-06-22T04:08:26.534Z,55.74
2018-06-22T04:09:26.523Z,55.83
2018-06-22T04:10:26.527Z,55.83
2018-06-22T04:11:26.514Z,55.74
2018-06-22T04:12:26.504Z,55.83
2018-06-22T04:13:26.491Z,55.26
2018-06-22T04:14:26.498Z,55.16
2018-06-22T04:15:26.483Z,55.45
2018-06-22T04:16:26.476Z,55.93
2018-06-22T04:17:26.466Z,55.64
2018-06-22T04:18:26.460Z,55.64
2018-06-22T04:19:26.459Z,55.35
2018-06-22T04:20:26.450Z,55.16
2018-06-22T04:21:26.439Z,55.16
2018-06-22T04:22:26.437Z,55.16
2018-06-22T04:23:26.426Z,54.97
2018-06-22T04:24:26.447Z,55.45
2018-06-22T04:25:26.420Z,55.07
2018-06-22T04:26:26.403Z,55.07
2018-06-22T04:27:26.397Z,55.07
2018-06-22T04:28:26.391Z,55.35
2018-06-22T04:29:26.383Z,55.74
2018-06-22T04:30:26.376Z,55.93
2018-06-22T04:31:26.369Z,54.43
2018-06-22T04:32:26.371Z,54.04
2018-06-22T04:33:26.361Z,53.75
2018-06-22T04:34:26.352Z,52.73
2018-06-22T04:35:26.351Z,50.96
2018-06-22T04:36:26.339Z,49.43
2018-06-22T04:37:26.335Z,50.46
2018-06-22T04:38:26.326Z,50.46
2018-06-22T04:39:26.328Z,49.81
2018-06-22T04:40:26.312Z,47.94
2018-06-22T04:41:26.309Z,45.98
2018-06-22T04:42:26.304Z,44.08
2018-06-22T04:43:26.306Z,42.20
2018-06-22T04:44:26.296Z,41.05
2018-06-22T04:45:26.295Z,40.68
2018-06-22T04:46:26.288Z,40.12
2018-06-22T04:47:26.285Z,38.99
2018-06-22T04:48:26.281Z,38.24
2018-06-22T04:49:26.284Z,38.16
2018-06-22T04:50:26.287Z,37.96
2018-06-22T04:51:26.284Z,37.87
2018-06-22T04:52:26.280Z,38.28
2018-06-22T04:53:26.271Z,38.28
2018-06-22T04:54:26.287Z,37.23
2018-06-22T04:55:26.270Z,36.63
2018-06-22T04:56:26.273Z,36.54
2018-06-22T04:57:26.269Z,37.08
2018-06-22T04:58:26.272Z,38.74
2018-06-22T04:59:26.275Z,37.79
2018-06-22T05:00:26.274Z,36.83
2018-06-22T05:01:26.269Z,37.12
2018-06-22T05:02:26.269Z,36.93
2018-06-22T05:03:26.278Z,37.50
2018-06-22T05:04:26.275Z,36.85
2018-06-22T05:05:26.278Z,37.18
2018-06-22T05:06:26.277Z,38.22
2018-06-22T05:07:26.285Z,39.64
2018-06-22T05:08:26.283Z,38.91
2018-06-22T05:09:26.410Z,38.83
2018-06-22T05:10:26.284Z,38.37
2018-06-22T05:11:26.292Z,37.81
2018-06-22T05:12:26.290Z,36.57
2018-06-22T05:13:26.291Z,36.87
2018-06-22T05:14:26.321Z,36.71
2018-06-22T05:15:26.339Z,34.87
2018-06-22T05:16:26.297Z,34.97
2018-06-22T05:17:26.300Z,34.89
2018-06-22T05:18:26.300Z,33.34
2018-06-22T05:19:26.317Z,34.12
2018-06-22T05:20:26.310Z,34.00
2018-06-22T05:21:26.313Z,33.14
2018-06-22T05:22:26.313Z,34.87
2018-06-22T05:23:26.312Z,35.44
2018-06-22T05:24:26.311Z,35.05
2018-06-22T05:25:26.319Z,35.82
2018-06-22T05:26:26.312Z,34.84
2018-06-22T05:27:26.315Z,34.63
2018-06-22T05:28:26.323Z,36.25
2018-06-22T05:29:26.316Z,36.25
2018-06-22T05:30:26.376Z,36.71
2018-06-22T05:31:26.316Z,36.89
2018-06-22T05:32:26.315Z,38.62
2018-06-22T05:33:26.411Z,38.53
2018-06-22T05:34:26.315Z,38.79
2018-06-22T05:35:26.321Z,38.60
2018-06-22T05:36:26.316Z,38.70
2018-06-22T05:37:26.315Z,38.97
2018-06-22T05:38:26.319Z,38.87
2018-06-22T05:39:26.311Z,39.24
2018-06-22T05:40:26.325Z,39.43
2018-06-22T05:41:26.331Z,40.49
2018-06-22T05:42:26.319Z,40.76
2018-06-22T05:43:26.309Z,41.24
2018-06-22T05:44:26.311Z,40.95
2018-06-22T05:45:26.308Z,41.24
2018-06-22T05:46:26.306Z,41.43
2018-06-22T05:47:26.305Z,41.31
2018-06-22T05:48:26.303Z,42.08
2018-06-22T05:49:26.305Z,41.89
2018-06-22T05:50:26.302Z,42.27
2018-06-22T05:51:26.307Z,46.00
2018-06-22T05:52:26.303Z,44.75
2018-06-22T05:53:26.367Z,44.84
2018-06-22T05:54:26.291Z,43.98
2018-06-22T05:55:26.290Z,43.31
2018-06-22T05:56:26.382Z,43.31
2018-06-22T05:57:26.298Z,43.02
2018-06-22T05:58:26.300Z,43.31
2018-06-22T05:59:26.288Z,44.06
2018-06-22T06:00:26.292Z,43.96
2018-06-22T06:01:26.291Z,44.15
2018-06-22T06:02:26.275Z,43.96
2018-06-22T06:03:26.304Z,44.73
2018-06-22T06:04:26.269Z,44.82
2018-06-22T06:05:26.265Z,44.44
2018-06-22T06:06:26.337Z,44.44
2018-06-22T06:07:26.275Z,44.90
2018-06-22T06:08:26.265Z,45.37
2018-06-22T06:09:26.255Z,45.28
2018-06-22T06:10:26.252Z,45.47
2018-06-22T06:11:26.250Z,45.37
2018-06-22T06:12:26.304Z,45.86
2018-06-22T06:13:26.256Z,46.14
2018-06-22T06:14:26.275Z,45.76
2018-06-22T06:15:26.261Z,45.57
2018-06-22T06:16:26.304Z,45.86
2018-06-22T06:17:26.302Z,45.57
2018-06-22T06:18:26.239Z,45.47
2018-06-22T06:19:26.320Z,45.28
2018-06-22T06:20:26.257Z,45.57
2018-06-22T06:21:26.238Z,45.47
2018-06-22T06:22:26.238Z,45.47
2018-06-22T06:23:26.225Z,45.67
2018-06-22T06:24:26.240Z,46.05
2018-06-22T06:25:26.225Z,46.43
2018-06-22T06:26:26.272Z,47.10
2018-06-22T06:27:26.264Z,45.86
2018-06-22T06:28:26.209Z,45.76
2018-06-22T06:29:26.201Z,45.18
2018-06-22T06:30:26.234Z,45.86
2018-06-22T06:31:26.203Z,45.67
2018-06-22T06:32:26.198Z,45.59
2018-06-22T06:33:26.262Z,45.28
2018-06-22T06:34:26.247Z,45.28
2018-06-22T06:35:26.185Z,45.57
2018-06-22T06:36:26.237Z,48.16
2018-06-22T06:37:26.251Z,46.34
2018-06-22T06:38:26.171Z,47.20
2018-06-22T06:39:26.259Z,47.10
2018-06-22T06:40:26.202Z,46.62
2018-06-22T06:41:26.194Z,46.62
2018-06-22T06:42:26.165Z,46.72
2018-06-22T06:43:26.212Z,46.43
2018-06-22T06:44:26.202Z,45.95
2018-06-22T06:45:26.155Z,45.95
2018-06-22T06:46:26.208Z,46.31
2018-06-22T06:47:26.203Z,46.81
2018-06-22T06:48:26.152Z,46.43
2018-06-22T06:49:26.170Z,46.41
2018-06-22T06:50:26.153Z,46.72
2018-06-22T06:51:26.123Z,47.77
2018-06-22T06:52:26.120Z,46.24
2018-06-22T06:53:26.175Z,46.72
2018-06-22T06:54:26.144Z,46.55
2018-06-22T06:55:26.111Z,46.26
2018-06-22T06:56:26.174Z,45.78
2018-06-22T06:57:26.101Z,45.01
2018-06-22T06:58:26.212Z,44.75
2018-06-22T06:59:26.104Z,45.23
2018-06-22T07:00:26.235Z,44.94
2018-06-22T07:01:26.093Z,44.17
2018-06-22T07:02:26.122Z,43.88
2018-06-22T07:03:26.124Z,43.88
2018-06-22T07:04:26.112Z,46.00
2018-06-22T07:05:26.077Z,43.88
2018-06-22T07:06:26.141Z,44.08
2018-06-22T07:07:26.132Z,46.36
2018-06-22T07:08:26.076Z,45.67
2018-06-22T07:09:26.063Z,47.10
2018-06-22T07:10:26.093Z,49.31
2018-06-22T07:11:26.062Z,50.96
2018-06-22T07:12:26.064Z,48.09
2018-06-22T07:13:26.111Z,45.88
2018-06-22T07:14:26.086Z,44.63
2018-06-22T07:15:26.061Z,44.65
2018-06-22T07:16:26.059Z,44.08
2018-06-22T07:17:26.101Z,44.27
2018-06-22T07:18:26.035Z,45.04
2018-06-22T07:19:26.032Z,45.81
2018-06-22T07:20:26.063Z,45.14
2018-06-22T07:21:26.028Z,45.64
2018-06-22T07:22:26.024Z,44.87
2018-06-22T07:23:26.116Z,45.83
2018-06-22T07:24:26.053Z,44.20
2018-06-22T07:25:26.016Z,43.91
2018-06-22T07:26:26.022Z,43.23
2018-06-22T07:27:26.070Z,43.62
2018-06-22T07:28:26.008Z,42.47
2018-06-22T07:29:25.997Z,42.93
2018-06-22T07:30:26.029Z,42.83
2018-06-22T07:31:26.007Z,44.03
2018-06-22T07:32:26.012Z,47.01
2018-06-22T07:33:26.045Z,47.20
2018-06-22T07:34:26.020Z,47.17
2018-06-22T07:35:25.992Z,47.46
2018-06-22T07:36:26.050Z,47.15
2018-06-22T07:37:26.044Z,49.65
2018-06-22T07:38:25.981Z,48.49
2018-06-22T07:39:25.973Z,48.75
2018-06-22T07:40:26.022Z,50.10
2018-06-22T07:41:25.969Z,50.10
2018-06-22T07:42:25.968Z,49.65
2018-06-22T07:43:26.012Z,50.32
2018-06-22T07:44:25.983Z,49.10
2018-06-22T07:45:25.949Z,48.04
2018-06-22T07:46:26.013Z,47.85
2018-06-22T07:47:26.003Z,49.00
2018-06-22T07:48:25.951Z,48.33
2018-06-22T07:49:25.939Z,47.39
2018-06-22T07:50:25.964Z,46.91
2018-06-22T07:51:25.928Z,45.76
2018-06-22T07:52:25.924Z,48.35
2018-06-22T07:53:25.993Z,46.26
2018-06-22T07:54:25.915Z,45.88
2018-06-22T07:55:25.911Z,45.71
2018-06-22T07:56:25.951Z,47.92
2018-06-22T07:57:25.973Z,45.92
2018-06-22T07:58:25.901Z,45.06
2018-06-22T07:59:25.907Z,44.99
2018-06-22T08:00:25.926Z,45.37
2018-06-22T08:01:25.908Z,44.14
2018-06-22T08:02:25.902Z,42.32
2018-06-22T08:03:25.962Z,42.50
2018-06-22T08:04:25.929Z,42.60
2018-06-22T08:05:25.888Z,43.18
2018-06-22T08:06:25.880Z,43.76
2018-06-22T08:07:25.939Z,42.82
2018-06-22T08:08:25.882Z,40.37
2018-06-22T08:09:25.879Z,40.47
2018-06-22T08:10:25.897Z,42.27
2018-06-22T08:11:25.868Z,43.88
2018-06-22T08:12:25.864Z,46.67
2018-06-22T08:13:25.925Z,47.94
2018-06-22T08:14:25.863Z,45.28
2018-06-22T08:15:25.910Z,43.93
2018-06-22T08:16:25.917Z,42.77
2018-06-22T08:17:25.914Z,41.33
2018-06-22T08:18:25.855Z,42.12
2018-06-22T08:19:25.847Z,43.28
2018-06-22T08:20:25.874Z,43.11
2018-06-22T08:21:25.856Z,42.43
2018-06-22T08:22:25.841Z,41.88
2018-06-22T08:23:25.904Z,41.78
2018-06-22T08:24:25.835Z,40.24
2018-06-22T08:25:25.835Z,38.81
2018-06-22T08:26:25.882Z,38.89
2018-06-22T08:27:25.829Z,39.86
2018-06-22T08:28:25.832Z,40.26
2018-06-22T08:29:25.823Z,40.64
2018-06-22T08:30:25.837Z,39.78
2018-06-22T08:31:25.824Z,37.85
2018-06-22T08:32:25.831Z,37.76
2018-06-22T08:33:25.864Z,38.62
2018-06-22T08:34:25.841Z,37.45
2018-06-22T08:35:25.814Z,37.64
2018-06-22T08:36:25.852Z,38.12
2018-06-22T08:37:25.854Z,38.53
2018-06-22T08:38:25.811Z,37.95
2018-06-22T08:39:25.807Z,39.39
2018-06-22T08:40:25.806Z,38.81
2018-06-22T08:41:25.812Z,37.87
2018-06-22T08:42:25.804Z,37.87
2018-06-22T08:43:25.813Z,36.81
2018-06-22T08:44:25.803Z,38.26
2018-06-22T08:45:25.797Z,37.01
2018-06-22T08:46:25.842Z,37.60
2018-06-22T08:47:25.809Z,37.12
2018-06-22T08:48:25.793Z,35.00
2018-06-22T08:49:25.838Z,35.67
2018-06-22T08:50:25.790Z,34.70
2018-06-22T08:51:25.790Z,36.06
2018-06-22T08:52:25.787Z,36.06
2018-06-22T08:53:25.790Z,35.02
2018-06-22T08:54:25.786Z,35.88
2018-06-22T08:55:25.796Z,36.07
2018-06-22T08:56:25.808Z,35.00
2018-06-22T08:57:25.793Z,34.82
2018-06-22T08:58:25.782Z,36.46
2018-06-22T08:59:25.785Z,36.06
2018-06-22T09:00:25.836Z,37.04
2018-06-22T09:01:25.912Z,37.89
2018-06-22T09:02:25.828Z,37.71
2018-06-22T09:03:25.782Z,36.65
2018-06-22T09:04:25.780Z,34.34
2018-06-22T09:05:25.778Z,34.53
2018-06-22T09:06:25.779Z,35.69
2018-06-22T09:07:25.784Z,36.38
2018-06-22T09:08:25.776Z,34.55
2018-06-22T09:09:25.780Z,33.39
2018-06-22T09:10:25.774Z,32.71
2018-06-22T09:11:25.792Z,33.48
2018-06-22T09:12:25.776Z,31.07
2018-06-22T09:13:25.788Z,32.43
2018-06-22T09:14:25.825Z,35.03
2018-06-22T09:15:25.819Z,33.58
2018-06-22T09:16:25.774Z,32.04
2018-06-22T09:17:25.773Z,31.85
2018-06-22T09:18:25.770Z,31.85
2018-06-22T09:19:25.777Z,32.99
2018-06-22T09:20:25.779Z,33.78
2018-06-22T09:21:25.770Z,34.94
2018-06-22T09:22:25.775Z,35.13
2018-06-22T09:23:25.775Z,34.26
2018-06-22T09:24:25.774Z,32.29
2018-06-22T09:25:25.853Z,34.69
2018-06-22T09:26:25.774Z,37.10
2018-06-22T09:27:25.774Z,36.91
2018-06-22T09:28:25.804Z,35.38
2018-06-22T09:29:25.768Z,36.93
2018-06-22T09:30:25.769Z,36.27
2018-06-22T09:31:25.815Z,36.07
2018-06-22T09:32:25.767Z,36.27
2018-06-22T09:33:25.765Z,34.94
2018-06-22T09:34:25.773Z,34.64
2018-06-22T09:35:25.771Z,36.38
2018-06-22T09:36:25.783Z,35.52
2018-06-22T09:37:25.773Z,33.80
2018-06-22T09:38:25.768Z,33.80
2018-06-22T09:39:25.775Z,31.93
2018-06-22T09:40:25.766Z,33.36
2018-06-22T09:41:25.768Z,37.10
2018-06-22T09:42:25.788Z,38.54
2018-06-22T09:43:25.766Z,37.41
2018-06-22T09:44:25.815Z,36.25
2018-06-22T09:45:25.774Z,33.37
2018-06-22T09:46:25.773Z,33.76
2018-06-22T09:47:25.784Z,32.79
2018-06-22T09:48:25.821Z,33.68
2018-06-22T09:49:25.771Z,33.97
2018-06-22T09:50:25.762Z,33.78
2018-06-22T09:51:25.788Z,34.94
2018-06-22T09:52:25.763Z,34.86
2018-06-22T09:53:25.771Z,34.95
2018-06-22T09:54:25.761Z,34.76
2018-06-22T09:55:25.766Z,34.47
2018-06-22T09:56:25.765Z,32.92
2018-06-22T09:57:25.804Z,31.76
2018-06-22T09:58:25.769Z,32.92
2018-06-22T09:59:25.773Z,33.60
2018-06-22T10:00:25.766Z,34.64
2018-06-22T10:01:25.764Z,33.80
2018-06-22T10:02:25.775Z,33.98
2018-06-22T10:03:25.800Z,35.63
2018-06-22T10:04:25.778Z,34.39
2018-06-22T10:05:25.769Z,34.39
2018-06-22T10:06:25.763Z,36.90
2018-06-22T10:07:25.769Z,36.52
2018-06-22T10:08:25.768Z,36.13
2018-06-22T10:09:25.764Z,36.22
2018-06-22T10:10:25.791Z,35.45
2018-06-22T10:11:25.829Z,36.90
2018-06-22T10:12:25.765Z,36.32
2018-06-22T10:13:25.766Z,34.50
2018-06-22T10:14:25.767Z,33.92
2018-06-22T10:15:25.775Z,34.70
2018-06-22T10:16:25.766Z,33.25
2018-06-22T10:17:25.780Z,33.73
2018-06-22T10:18:25.775Z,33.54
2018-06-22T10:19:25.769Z,34.02
2018-06-22T10:20:25.796Z,33.73
2018-06-22T10:21:25.771Z,35.49
2018-06-22T10:22:25.771Z,33.65
2018-06-22T10:23:25.816Z,32.39
2018-06-22T10:24:25.772Z,32.39
2018-06-22T10:25:25.771Z,33.07
2018-06-22T10:26:25.802Z,32.97
2018-06-22T10:27:25.774Z,34.50
2018-06-22T10:28:25.775Z,34.91
2018-06-22T10:29:25.779Z,36.16
2018-06-22T10:30:25.777Z,35.68
2018-06-22T10:31:25.778Z,33.28
2018-06-22T10:32:25.778Z,34.04
2018-06-22T10:33:25.785Z,34.05
2018-06-22T10:34:25.780Z,35.20
2018-06-22T10:35:25.782Z,34.73
2018-06-22T10:36:25.796Z,34.73
2018-06-22T10:37:25.784Z,33.18
2018-06-22T10:38:25.783Z,32.99
2018-06-22T10:39:25.820Z,33.67
2018-06-22T10:40:25.785Z,34.05
2018-06-22T10:41:25.790Z,33.86
2018-06-22T10:42:25.816Z,34.25
2018-06-22T10:43:25.790Z,33.84
2018-06-22T10:44:25.792Z,34.04
2018-06-22T10:45:25.791Z,33.94
2018-06-22T10:46:25.790Z,33.84
2018-06-22T10:47:25.793Z,35.10
2018-06-22T10:48:25.796Z,33.47
2018-06-22T10:49:25.803Z,33.95
2018-06-22T10:50:25.797Z,32.12
2018-06-22T10:51:25.815Z,34.62
2018-06-22T10:52:25.799Z,34.81
2018-06-22T10:53:25.806Z,37.81
2018-06-22T10:54:25.802Z,34.42
2018-06-22T10:55:25.809Z,34.05
2018-06-22T10:56:25.809Z,32.89
2018-06-22T10:57:25.810Z,32.99
2018-06-22T10:58:25.824Z,32.60
2018-06-22T10:59:25.817Z,33.37
2018-06-22T11:00:25.809Z,34.13
2018-06-22T11:01:25.840Z,33.75
2018-06-22T11:02:25.813Z,35.66
2018-06-22T11:03:25.820Z,35.47
2018-06-22T11:04:25.821Z,34.68
2018-06-22T11:05:25.814Z,34.68
2018-06-22T11:06:25.815Z,33.04
2018-06-22T11:07:25.829Z,33.29
2018-06-22T11:08:25.820Z,34.74
2018-06-22T11:09:25.818Z,37.54
2018-06-22T11:10:25.832Z,35.13
2018-06-22T11:11:25.821Z,36.09
2018-06-22T11:12:25.829Z,38.60
2018-06-22T11:13:25.821Z,33.98
2018-06-22T11:14:25.872Z,33.31
2018-06-22T11:15:25.837Z,32.73
2018-06-22T11:16:25.851Z,32.82
2018-06-22T11:17:25.861Z,33.02
2018-06-22T11:18:25.921Z,33.91
2018-06-22T11:19:25.835Z,33.91
2018-06-22T11:20:25.825Z,37.38
2018-06-22T11:21:25.827Z,35.94
2018-06-22T11:22:25.827Z,35.64
2018-06-22T11:23:25.828Z,36.92
2018-06-22T11:24:25.831Z,35.66
2018-06-22T11:25:25.831Z,34.81
2018-06-22T11:26:25.838Z,33.45
2018-06-22T11:27:25.852Z,33.92
2018-06-22T11:28:25.833Z,34.91
2018-06-22T11:29:25.833Z,34.79
2018-06-22T11:30:25.838Z,35.49
2018-06-22T11:31:25.840Z,32.10
2018-06-22T11:32:25.851Z,31.52
2018-06-22T11:33:25.860Z,32.20
2018-06-22T11:34:25.836Z,35.10
2018-06-22T11:35:25.850Z,34.15
2018-06-22T11:36:25.851Z,32.60
2018-06-22T11:37:25.839Z,31.73
2018-06-22T11:38:25.841Z,32.81
2018-06-22T11:39:25.850Z,31.54
2018-06-22T11:40:25.849Z,33.76
2018-06-22T11:41:25.939Z,32.91
2018-06-22T11:42:25.853Z,32.02
2018-06-22T11:43:25.852Z,31.70
2018-06-22T11:44:25.849Z,33.44
2018-06-22T11:45:25.859Z,34.89
2018-06-22T11:46:25.850Z,36.82
2018-06-22T11:47:25.859Z,33.75
2018-06-22T11:48:25.868Z,33.84
2018-06-22T11:49:25.871Z,32.28
2018-06-22T11:50:25.859Z,34.52
2018-06-22T11:51:25.866Z,33.44
2018-06-22T11:52:25.861Z,33.81
2018-06-22T11:53:25.859Z,34.78
2018-06-22T11:54:25.858Z,34.39
2018-06-22T11:55:25.861Z,33.89
2018-06-22T11:56:25.870Z,35.32
2018-06-22T11:57:25.871Z,37.37
2018-06-22T11:58:25.871Z,35.34
2018-06-22T11:59:25.868Z,35.63
2018-06-22T12:00:25.863Z,34.10
2018-06-22T12:01:25.866Z,32.36
2018-06-22T12:02:25.864Z,31.89
2018-06-22T12:03:25.865Z,32.68
2018-06-22T12:04:25.874Z,31.52
2018-06-22T12:05:25.867Z,32.26
2018-06-22T12:06:25.880Z,34.28
2018-06-22T12:07:25.900Z,36.98
2018-06-22T12:08:25.868Z,36.29
2018-06-22T12:09:25.875Z,36.69
2018-06-22T12:10:25.883Z,37.19
2018-06-22T12:11:25.953Z,34.10
2018-06-22T12:12:25.875Z,31.88
2018-06-22T12:13:25.880Z,31.98
2018-06-22T12:14:25.877Z,33.04
2018-06-22T12:15:25.883Z,35.66
2018-06-22T12:16:25.879Z,36.16
2018-06-22T12:17:25.875Z,31.91
2018-06-22T12:18:25.879Z,31.62
2018-06-22T12:19:25.950Z,34.04
2018-06-22T12:20:25.884Z,33.28
2018-06-22T12:21:25.931Z,33.28
2018-06-22T12:22:25.879Z,33.18
2018-06-22T12:23:25.881Z,33.95
2018-06-22T12:24:25.880Z,34.05
2018-06-22T12:25:25.884Z,33.10
2018-06-22T12:26:25.882Z,32.14
2018-06-22T12:27:25.884Z,30.89
2018-06-22T12:28:25.883Z,29.99
2018-06-22T12:29:25.889Z,31.36
2018-06-22T12:30:25.889Z,31.47
2018-06-22T12:31:25.889Z,30.41
2018-06-22T12:32:25.888Z,29.83
2018-06-22T12:33:25.889Z,33.02
2018-06-22T12:34:25.899Z,31.28
2018-06-22T12:35:25.905Z,32.06
2018-06-22T12:36:25.896Z,31.67
2018-06-22T12:37:25.905Z,31.57
2018-06-22T12:38:25.899Z,31.28
2018-06-22T12:39:25.917Z,29.90
2018-06-22T12:40:25.900Z,30.76
2018-06-22T12:41:25.901Z,31.04
2018-06-22T12:42:25.901Z,30.66
2018-06-22T12:43:25.903Z,30.28
2018-06-22T12:44:25.905Z,30.08
2018-06-22T12:45:25.910Z,32.33
2018-06-22T12:46:25.910Z,32.42
2018-06-22T12:47:25.912Z,30.79
2018-06-22T12:48:25.918Z,31.86
2018-06-22T12:49:25.913Z,31.18
2018-06-22T12:50:25.961Z,30.41
2018-06-22T12:51:25.922Z,29.83
2018-06-22T12:52:25.918Z,30.71